createdAt,value
2022-08-10T00:01:41.420Z,12.23
2022-08-10T00:04:09.044Z,12.20
2022-08-10T00:06:38.729Z,16.92
2022-08-10T00:09:06.425Z,13.35
2022-08-10T00:11:33.942Z,14.15
2022-08-10T00:14:01.519Z,14.45
2022-08-10T00:16:29.145Z,14.43
2022-08-10T00:18:57.972Z,13.50
2022-08-10T00:21:27.056Z,13.75
2022-08-10T00:23:54.865Z,11.00
2022-08-10T00:26:22.503Z,13.65
2022-08-10T00:28:49.982Z,9.40
2022-08-10T00:31:17.496Z,9.27
2022-08-10T00:33:44.976Z,9.43
2022-08-10T00:36:14.000Z,11.23
2022-08-10T00:38:42.294Z,12.18
2022-08-10T00:41:09.820Z,10.88
2022-08-10T00:43:37.324Z,7.93
2022-08-10T00:46:05.058Z,8.70
2022-08-10T00:48:32.942Z,8.70
2022-08-10T00:51:01.046Z,11.30
2022-08-10T00:53:30.639Z,10.07
2022-08-10T00:57:00.894Z,6.18
2022-08-10T00:58:48.053Z,9.48
2022-08-10T01:02:07.099Z,10.25
2022-08-10T01:04:39.997Z,6.90
2022-08-10T01:07:03.256Z,8.55
2022-08-10T01:09:41.457Z,9.20
2022-08-10T01:12:47.051Z,9.52
2022-08-10T01:15:09.311Z,8.40
2022-08-10T01:17:50.118Z,8.82
2022-08-10T01:20:27.497Z,9.63
2022-08-10T01:23:41.652Z,9.68
2022-08-10T01:26:32.187Z,9.23
2022-08-10T01:29:19.449Z,8.32
2022-08-10T01:31:52.283Z,9.30
2022-08-10T01:34:24.689Z,6.20
2022-08-10T01:36:56.621Z,6.18
2022-08-10T01:39:27.022Z,7.72
2022-08-10T01:41:57.926Z,8.30
2022-08-10T01:44:34.868Z,8.77
2022-08-10T01:47:27.473Z,8.20
2022-08-10T01:50:00.327Z,6.63
2022-08-10T01:52:30.993Z,7.00
2022-08-10T01:54:59.740Z,5.95
2022-08-10T01:57:32.142Z,7.10
2022-08-10T02:00:02.701Z,5.55
2022-08-10T02:02:34.366Z,7.20
2022-08-10T02:05:04.952Z,10.30
2022-08-10T02:07:37.694Z,8.65
2022-08-10T02:10:11.618Z,6.82
2022-08-10T02:12:41.023Z,6.25
2022-08-10T02:15:13.755Z,4.55
2022-08-10T02:17:59.876Z,6.95
2022-08-10T02:20:33.623Z,5.60
2022-08-10T02:23:05.578Z,5.43
2022-08-10T02:25:40.519Z,6.80
2022-08-10T02:28:29.282Z,8.82
2022-08-10T02:31:02.592Z,6.47
2022-08-10T02:33:32.752Z,6.65
2022-08-10T02:36:07.240Z,5.53
2022-08-10T02:38:58.281Z,4.72
2022-08-10T02:45:02.554Z,4.18
2022-08-10T02:45:26.035Z,4.93
2022-08-10T02:47:19.267Z,6.55
2022-08-10T02:49:52.607Z,8.02
2022-08-10T02:52:25.672Z,7.10
2022-08-10T02:55:17.475Z,6.22
2022-08-10T02:58:12.624Z,8.55
2022-08-10T03:00:45.288Z,9.13
2022-08-10T03:03:18.878Z,8.20
2022-08-10T03:05:50.111Z,8.35
2022-08-10T03:08:20.384Z,8.52
2022-08-10T03:10:50.315Z,10.25
2022-08-10T03:13:19.240Z,8.02
2022-08-10T03:15:49.101Z,7.25
2022-08-10T03:18:18.852Z,7.75
2022-08-10T03:20:48.646Z,7.93
2022-08-10T03:23:18.435Z,6.80
2022-08-10T03:25:53.833Z,6.78
2022-08-10T03:28:24.467Z,7.60
2022-08-10T03:30:52.660Z,7.50
2022-08-10T03:33:22.156Z,7.40
2022-08-10T03:36:40.212Z,7.60
2022-08-10T03:38:40.368Z,8.05
2022-08-10T03:41:16.373Z,9.45
2022-08-10T03:43:45.852Z,6.30
2022-08-10T03:46:14.834Z,8.13
2022-08-10T03:48:48.897Z,7.38
2022-08-10T03:51:19.690Z,5.53
2022-08-10T03:54:04.188Z,7.50
2022-08-10T03:56:37.174Z,7.80
2022-08-10T03:59:05.473Z,6.38
2022-08-10T04:02:45.830Z,6.95
2022-08-10T04:04:24.570Z,7.15
2022-08-10T04:06:55.896Z,4.88
2022-08-10T04:09:24.846Z,7.25
2022-08-10T04:12:11.228Z,5.88
2022-08-10T04:14:50.965Z,6.18
2022-08-10T04:17:57.196Z,5.32
2022-08-10T04:20:14.551Z,5.60
2022-08-10T04:22:44.721Z,5.55
2022-08-10T04:25:13.760Z,4.65
2022-08-10T04:27:41.461Z,4.30
2022-08-10T04:30:10.159Z,7.85
2022-08-10T04:32:38.729Z,11.70
2022-08-10T04:35:10.629Z,7.93
2022-08-10T04:37:43.291Z,5.00
2022-08-10T04:40:28.749Z,5.15
2022-08-10T04:43:02.331Z,7.70
2022-08-10T04:45:50.370Z,9.55
2022-08-10T04:48:42.944Z,7.68
2022-08-10T04:51:10.726Z,7.78
2022-08-10T04:54:03.092Z,8.25
2022-08-10T04:56:32.530Z,8.65
2022-08-10T04:59:00.784Z,8.27
2022-08-10T05:02:28.667Z,9.68
2022-08-10T05:04:36.643Z,6.85
2022-08-10T05:07:03.537Z,10.52
2022-08-10T05:09:31.016Z,12.20
2022-08-10T05:11:59.840Z,7.78
2022-08-10T05:14:27.466Z,4.85
2022-08-10T05:16:54.974Z,5.32
2022-08-10T05:20:02.358Z,3.15
2022-08-10T05:22:10.006Z,3.72
2022-08-10T05:24:37.983Z,3.40
2022-08-10T05:27:09.961Z,2.65
2022-08-10T05:29:38.199Z,2.83
2022-08-10T05:32:06.282Z,3.72
2022-08-10T05:34:33.851Z,3.28
2022-08-10T05:37:01.550Z,4.20
2022-08-10T05:39:31.798Z,4.97
2022-08-10T05:42:01.155Z,7.20
2022-08-10T05:44:30.774Z,7.20
2022-08-10T05:46:58.590Z,6.70
2022-08-10T05:49:26.089Z,7.97
2022-08-10T05:51:53.761Z,6.28
2022-08-10T05:54:21.324Z,9.10
2022-08-10T05:56:55.555Z,8.45
2022-08-10T06:00:11.325Z,9.70
2022-08-10T06:02:30.877Z,9.43
2022-08-10T06:05:04.908Z,9.40
2022-08-10T06:07:33.208Z,10.38
2022-08-10T06:10:02.932Z,10.90
2022-08-10T06:12:53.277Z,6.45
2022-08-10T06:15:50.766Z,6.75
2022-08-10T06:18:10.914Z,2.90
2022-08-10T06:20:39.095Z,2.75
2022-08-10T06:23:07.468Z,2.40
2022-08-10T06:28:24.432Z,2.40
2022-08-10T06:30:54.703Z,3.03
2022-08-10T06:33:25.042Z,2.88
2022-08-10T06:35:55.000Z,2.50
2022-08-10T06:38:24.968Z,3.30
2022-08-10T06:40:56.337Z,2.38
2022-08-10T06:43:25.803Z,2.40
2022-08-10T06:46:07.851Z,2.97
2022-08-10T06:48:42.475Z,2.72
2022-08-10T06:51:18.061Z,3.35
2022-08-10T06:53:54.020Z,2.97
2022-08-10T06:56:37.845Z,3.83
2022-08-10T06:59:13.242Z,4.35
2022-08-10T07:01:53.030Z,2.97
2022-08-10T07:04:32.054Z,4.10
2022-08-10T07:07:04.499Z,3.45
2022-08-10T07:09:33.627Z,3.10
2022-08-10T07:12:07.546Z,3.22
2022-08-10T07:14:39.633Z,3.30
2022-08-10T07:17:15.620Z,2.83
2022-08-10T07:19:52.379Z,2.63
2022-08-10T07:23:08.651Z,2.58
2022-08-10T07:25:12.705Z,3.85
2022-08-10T07:27:59.850Z,2.80
2022-08-10T07:30:30.610Z,2.70
2022-08-10T07:32:59.708Z,2.65
2022-08-10T07:35:36.427Z,2.80
2022-08-10T07:38:11.504Z,2.67
2022-08-10T07:40:40.884Z,3.33
2022-08-10T07:43:10.040Z,2.58
2022-08-10T07:45:38.648Z,2.85
2022-08-10T07:48:10.649Z,3.40
2022-08-10T07:50:41.551Z,3.40
2022-08-10T07:53:13.861Z,3.15
2022-08-10T07:56:05.738Z,3.28
2022-08-10T07:58:35.033Z,2.67
2022-08-10T08:01:02.648Z,2.58
2022-08-10T08:03:32.782Z,3.22
2022-08-10T08:06:05.190Z,2.55
2022-08-10T08:08:41.447Z,3.17
2022-08-10T08:11:10.336Z,3.45
2022-08-10T08:13:55.416Z,3.33
2022-08-10T08:16:24.622Z,2.58
2022-08-10T08:24:07.810Z,3.83
2022-08-10T08:24:36.373Z,2.50
2022-08-10T08:27:07.599Z,2.78
2022-08-10T08:29:40.073Z,2.72
2022-08-10T08:32:08.366Z,2.40
2022-08-10T08:34:38.944Z,2.50
2022-08-10T08:37:10.154Z,3.25
2022-08-10T08:39:38.473Z,3.85
2022-08-10T08:42:26.525Z,2.78
2022-08-10T08:45:06.875Z,3.10
2022-08-10T08:48:04.830Z,3.25
2022-08-10T08:50:57.347Z,2.65
2022-08-10T08:54:03.632Z,3.53
2022-08-10T08:56:36.560Z,3.38
2022-08-10T08:59:15.299Z,3.95
2022-08-10T09:01:55.276Z,3.08
2022-08-10T09:04:50.291Z,3.90
2022-08-10T09:08:02.082Z,3.83
2022-08-10T09:10:39.438Z,3.70
2022-08-10T09:13:15.255Z,3.67
2022-08-10T09:15:52.578Z,3.38
2022-08-10T09:18:26.286Z,4.20
2022-08-10T09:21:01.877Z,3.85
2022-08-10T09:24:04.442Z,4.32
2022-08-10T09:26:34.678Z,4.75
2022-08-10T09:29:12.550Z,5.93
2022-08-10T09:33:06.019Z,5.47
2022-08-10T09:36:22.957Z,5.78
2022-08-10T09:38:02.236Z,5.18
2022-08-10T09:41:01.268Z,3.88
2022-08-10T09:43:37.514Z,3.88
2022-08-10T09:46:12.752Z,3.28
2022-08-10T09:48:48.339Z,4.10
2022-08-10T09:51:47.064Z,4.10
2022-08-10T09:54:48.795Z,4.82
2022-08-10T09:57:44.930Z,5.07
2022-08-10T10:00:20.375Z,5.70
2022-08-10T10:02:58.893Z,4.85
2022-08-10T10:05:38.079Z,4.85
2022-08-10T10:08:14.333Z,4.82
2022-08-10T10:10:51.588Z,4.32
2022-08-10T10:13:49.978Z,4.35
2022-08-10T10:16:25.051Z,4.32
2022-08-10T10:19:08.890Z,4.88
2022-08-10T10:21:55.005Z,4.82
2022-08-10T10:24:34.061Z,3.67
2022-08-10T10:27:16.010Z,4.72
2022-08-10T10:29:58.760Z,6.05
2022-08-10T10:32:40.189Z,5.15
2022-08-10T10:35:16.778Z,4.25
2022-08-10T10:38:02.235Z,5.15
2022-08-10T10:40:39.588Z,4.35
2022-08-10T10:43:18.001Z,4.35
2022-08-10T10:45:56.276Z,5.45
2022-08-10T10:48:29.643Z,5.70
2022-08-10T10:51:10.407Z,5.47
2022-08-10T10:53:45.110Z,5.90
2022-08-10T10:56:21.270Z,6.00
2022-08-10T10:59:00.192Z,6.03
2022-08-10T11:01:38.791Z,6.43
2022-08-10T11:04:19.207Z,4.28
2022-08-10T11:06:58.007Z,4.05
2022-08-10T11:10:08.695Z,4.22
2022-08-10T11:12:34.130Z,3.50
2022-08-10T11:15:07.878Z,5.32
2022-08-10T11:17:41.586Z,3.95
2022-08-10T11:20:16.765Z,4.70
2022-08-10T11:22:52.145Z,3.88
2022-08-10T11:25:27.306Z,3.80
2022-08-10T11:28:01.703Z,4.30
2022-08-10T11:30:34.672Z,3.67
2022-08-10T11:33:15.441Z,4.13
2022-08-10T11:36:04.835Z,5.30
2022-08-10T11:38:57.682Z,4.75
2022-08-10T11:42:12.333Z,5.03
2022-08-10T11:44:34.489Z,4.43
2022-08-10T11:47:06.322Z,4.38
2022-08-10T11:49:40.481Z,4.50
2022-08-10T11:52:14.081Z,4.80
2022-08-10T11:54:44.311Z,4.53
2022-08-10T11:57:12.821Z,4.53
2022-08-10T11:59:58.988Z,4.80
2022-08-10T12:02:32.733Z,5.13
2022-08-10T12:05:07.214Z,5.00
2022-08-10T12:10:04.740Z,4.60
2022-08-10T12:10:30.473Z,4.75
2022-08-10T12:13:05.750Z,3.30
2022-08-10T12:15:39.749Z,3.10
2022-08-10T12:18:14.832Z,2.72
2022-08-10T12:20:47.373Z,3.88
2022-08-10T12:23:23.085Z,3.60
2022-08-10T12:25:59.465Z,3.30
2022-08-10T12:28:50.082Z,4.50
2022-08-10T12:31:22.641Z,5.13
2022-08-10T12:34:02.124Z,4.15
2022-08-10T12:36:37.646Z,4.03
2022-08-10T12:39:10.506Z,4.60
2022-08-10T12:41:44.736Z,4.72
2022-08-10T12:44:16.743Z,4.70
2022-08-10T12:46:55.830Z,4.05
2022-08-10T12:49:29.725Z,4.22
2022-08-10T12:52:02.093Z,5.15
2022-08-10T12:54:37.033Z,4.13
2022-08-10T12:57:09.849Z,4.57
2022-08-10T12:59:43.137Z,4.60
2022-08-10T13:02:15.018Z,4.75
2022-08-10T13:04:44.152Z,3.78
2022-08-10T13:08:07.284Z,4.72
2022-08-10T13:10:07.949Z,5.00
2022-08-10T13:12:40.518Z,4.75
2022-08-10T13:15:46.223Z,5.28
2022-08-10T13:18:06.190Z,4.65
2022-08-10T13:20:51.791Z,4.78
2022-08-10T13:23:26.858Z,4.95
2022-08-10T13:25:58.228Z,4.95
2022-08-10T13:28:35.675Z,3.75
2022-08-10T13:31:11.477Z,4.43
2022-08-10T13:34:39.817Z,3.03
2022-08-10T13:36:40.271Z,2.85
2022-08-10T13:39:08.443Z,3.47
2022-08-10T13:41:40.635Z,3.90
2022-08-10T13:44:10.834Z,4.10
2022-08-10T13:46:42.036Z,4.93
2022-08-10T13:49:12.070Z,4.95
2022-08-10T13:51:54.535Z,3.90
2022-08-10T13:54:27.470Z,5.03
2022-08-10T13:56:57.776Z,4.30
2022-08-10T14:00:33.914Z,4.80
2022-08-10T14:02:23.829Z,4.40
2022-08-10T14:04:52.348Z,4.10
2022-08-10T14:07:21.271Z,3.95
2022-08-10T14:09:51.069Z,3.78
2022-08-10T14:12:32.071Z,4.03
2022-08-10T14:15:13.068Z,3.88
2022-08-10T14:17:44.897Z,4.07
2022-08-10T14:20:19.266Z,4.30
2022-08-10T14:22:49.107Z,4.13
2022-08-10T14:25:16.909Z,3.65
2022-08-10T14:28:03.407Z,4.90
2022-08-10T14:30:33.872Z,5.15
2022-08-10T14:33:04.529Z,4.55
2022-08-10T14:36:19.805Z,5.07
2022-08-10T14:38:26.387Z,4.22
2022-08-10T14:40:57.806Z,5.13
2022-08-10T14:43:29.628Z,4.57
2022-08-10T14:46:01.679Z,4.97
2022-08-10T14:48:33.716Z,5.45
2022-08-10T14:51:03.933Z,5.82
2022-08-10T14:53:36.789Z,4.38
2022-08-10T14:56:08.827Z,4.03
2022-08-10T14:59:06.451Z,4.43
2022-08-10T15:02:00.691Z,4.63
2022-08-10T15:04:23.189Z,4.72
2022-08-10T15:06:54.848Z,5.30
2022-08-10T15:09:24.940Z,5.65
2022-08-10T15:12:14.860Z,5.35
2022-08-10T15:14:46.067Z,4.45
2022-08-10T15:17:17.111Z,5.13
2022-08-10T15:20:04.135Z,4.72
2022-08-10T15:22:38.966Z,4.60
2022-08-10T15:25:18.716Z,4.43
2022-08-10T15:27:56.061Z,4.93
2022-08-10T15:30:31.586Z,5.20
2022-08-10T15:33:21.367Z,5.40
2022-08-10T15:36:27.774Z,5.20
2022-08-10T15:39:00.550Z,6.47
2022-08-10T15:41:58.434Z,5.05
2022-08-10T15:44:36.590Z,6.57
2022-08-10T15:47:09.045Z,5.97
2022-08-10T15:49:45.542Z,6.43
2022-08-10T15:52:39.731Z,5.72
2022-08-10T15:55:43.103Z,4.75
2022-08-10T15:58:05.409Z,4.03
2022-08-10T16:00:37.951Z,3.28
2022-08-10T16:03:12.949Z,3.90
2022-08-10T16:06:02.264Z,4.40
2022-08-10T16:08:56.323Z,4.50
2022-08-10T16:11:38.293Z,4.88
2022-08-10T16:14:15.602Z,4.78
2022-08-10T16:16:48.531Z,6.05
2022-08-10T16:19:24.260Z,5.60
2022-08-10T16:21:59.726Z,5.85
2022-08-10T16:24:32.075Z,6.10
2022-08-10T16:27:04.768Z,5.47
2022-08-10T16:29:33.168Z,5.88
2022-08-10T16:32:22.119Z,6.30
2022-08-10T16:34:53.672Z,5.90
2022-08-10T16:37:23.117Z,6.20
2022-08-10T16:39:58.684Z,6.45
2022-08-10T16:42:30.529Z,5.28
2022-08-10T16:45:02.636Z,5.20
2022-08-10T16:47:31.788Z,4.25
2022-08-10T16:50:03.457Z,4.18
2022-08-10T16:52:33.457Z,4.22
2022-08-10T16:55:24.608Z,5.22
2022-08-10T16:57:57.518Z,5.57
2022-08-10T17:00:27.578Z,3.65
2022-08-10T17:03:01.425Z,5.03
2022-08-10T17:06:03.365Z,5.20
2022-08-10T17:08:21.583Z,5.80
2022-08-10T17:10:51.977Z,5.40
2022-08-10T17:13:23.696Z,5.95
2022-08-10T17:15:58.718Z,4.55
2022-08-10T17:18:30.445Z,5.70
2022-08-10T17:21:01.274Z,5.72
2022-08-10T17:23:32.700Z,4.93
2022-08-10T17:26:04.218Z,4.93
2022-08-10T17:28:35.320Z,4.45
2022-08-10T17:31:18.974Z,3.13
2022-08-10T17:33:56.185Z,3.97
2022-08-10T17:36:30.655Z,4.72
2022-08-10T17:39:00.605Z,5.85
2022-08-10T17:41:32.241Z,4.72
2022-08-10T17:44:03.242Z,3.50
2022-08-10T17:46:34.286Z,5.55
2022-08-10T17:49:06.985Z,5.45
2022-08-10T17:51:37.702Z,4.63
2022-08-10T17:54:10.027Z,4.97
2022-08-10T17:56:39.584Z,4.47
2022-08-10T17:59:17.084Z,5.00
2022-08-10T18:02:01.788Z,5.00
2022-08-10T18:04:41.180Z,5.18
2022-08-10T18:07:13.129Z,4.55
2022-08-10T18:09:46.551Z,4.63
2022-08-10T18:12:18.018Z,5.55
2022-08-10T18:14:49.316Z,6.18
2022-08-10T18:17:21.503Z,6.18
2022-08-10T18:19:54.007Z,6.88
2022-08-10T18:22:24.681Z,7.47
2022-08-10T18:24:53.836Z,8.10
2022-08-10T18:27:23.623Z,6.68
2022-08-10T18:30:14.463Z,8.60
2022-08-10T18:32:46.775Z,7.88
2022-08-10T18:35:16.397Z,7.25
2022-08-10T18:37:48.948Z,7.82
2022-08-10T18:40:17.853Z,9.10
2022-08-10T18:42:51.085Z,9.10
2022-08-10T18:45:23.813Z,8.02
2022-08-10T18:48:00.017Z,8.88
2022-08-10T18:50:31.365Z,8.68
2022-08-10T18:53:03.616Z,8.80
2022-08-10T18:55:39.657Z,8.50
2022-08-10T18:58:34.130Z,9.20
2022-08-10T19:01:17.024Z,8.82
2022-08-10T19:04:07.057Z,8.25
2022-08-10T19:07:05.270Z,8.15
2022-08-10T19:09:48.341Z,9.02
2022-08-10T19:12:31.774Z,10.32
2022-08-10T19:15:10.642Z,8.82
2022-08-10T19:18:02.874Z,8.23
2022-08-10T19:20:37.132Z,9.20
2022-08-10T19:23:15.420Z,8.38
2022-08-10T19:26:41.216Z,8.90
2022-08-10T19:28:48.136Z,8.57
2022-08-10T19:31:24.768Z,8.43
2022-08-10T19:34:24.459Z,8.00
2022-08-10T19:37:01.234Z,8.85
2022-08-10T19:39:50.366Z,8.05
2022-08-10T19:42:31.676Z,8.48
2022-08-10T19:45:07.283Z,7.15
2022-08-10T19:47:39.431Z,6.88
2022-08-10T19:50:12.103Z,6.43
2022-08-10T19:52:49.418Z,6.90
2022-08-10T19:55:26.836Z,5.63
2022-08-10T19:58:02.248Z,7.70
2022-08-10T20:00:39.626Z,6.78
2022-08-10T20:03:14.223Z,6.18
2022-08-10T20:06:19.242Z,5.78
2022-08-10T20:08:43.678Z,6.53
2022-08-10T20:11:46.045Z,6.00
2022-08-10T20:14:22.294Z,6.30
2022-08-10T20:16:52.535Z,5.82
2022-08-10T20:19:53.995Z,5.75
2022-08-10T20:22:29.876Z,6.10
2022-08-10T20:25:02.319Z,6.35
2022-08-10T20:27:59.759Z,5.80
2022-08-10T20:30:29.727Z,6.53
2022-08-10T20:33:01.095Z,6.35
2022-08-10T20:35:33.566Z,6.03
2022-08-10T20:38:10.339Z,4.97
2022-08-10T20:40:45.875Z,5.43
2022-08-10T20:43:23.562Z,4.50
2022-08-10T20:46:09.429Z,4.63
2022-08-10T20:48:43.721Z,5.80
2022-08-10T20:51:15.481Z,5.40
2022-08-10T20:53:47.467Z,5.25
2022-08-10T20:56:22.286Z,5.97
2022-08-10T20:59:16.006Z,6.07
2022-08-10T21:02:07.045Z,7.25
2022-08-10T21:04:51.215Z,6.75
2022-08-10T21:08:00.327Z,7.97
2022-08-10T21:10:37.459Z,8.20
2022-08-10T21:13:33.876Z,6.38
2022-08-10T21:16:11.259Z,4.82
2022-08-10T21:19:07.839Z,5.18
2022-08-10T21:21:57.109Z,5.35
2022-08-10T21:24:34.295Z,4.55
2022-08-10T21:27:13.103Z,4.95
2022-08-10T21:29:53.921Z,4.85
2022-08-10T21:32:38.325Z,4.00
2022-08-10T21:35:36.251Z,4.90
2022-08-10T21:38:12.821Z,5.32
2022-08-10T21:41:17.567Z,4.07
2022-08-10T21:44:13.637Z,4.68
2022-08-10T21:47:07.487Z,5.15
2022-08-10T21:53:16.635Z,4.10
2022-08-10T21:56:11.473Z,6.50
2022-08-10T21:59:05.213Z,6.93
2022-08-10T22:01:55.314Z,7.10
2022-08-10T22:04:45.592Z,6.68
2022-08-10T22:07:36.203Z,10.95
2022-08-10T22:10:27.311Z,10.45
2022-08-10T22:13:17.290Z,7.78
2022-08-10T22:16:11.962Z,5.05
2022-08-10T22:19:03.494Z,4.80
2022-08-10T22:22:04.938Z,4.95
2022-08-10T22:25:16.853Z,4.70
2022-08-10T22:28:17.620Z,8.50
2022-08-10T22:31:26.946Z,4.38
2022-08-10T22:31:29.969Z,6.22
2022-08-10T22:34:19.323Z,10.18
2022-08-10T22:37:22.283Z,8.23
2022-08-10T22:40:18.822Z,9.52
2022-08-10T22:43:10.630Z,10.27
2022-08-10T22:46:03.345Z,13.27
2022-08-10T22:48:48.576Z,15.15
2022-08-10T22:51:23.644Z,16.83
2022-08-10T22:54:30.230Z,15.90
2022-08-10T22:57:18.029Z,12.95
2022-08-10T22:59:49.223Z,12.43
2022-08-10T23:02:28.864Z,13.07
2022-08-10T23:05:01.894Z,14.95
2022-08-10T23:07:31.916Z,13.88
2022-08-10T23:10:03.661Z,13.10
2022-08-10T23:12:36.659Z,11.85
2022-08-10T23:15:27.391Z,8.77
2022-08-10T23:18:14.707Z,5.90
2022-08-10T23:20:45.160Z,11.95
2022-08-10T23:23:23.469Z,10.80
2022-08-10T23:25:56.624Z,7.78
2022-08-10T23:28:39.034Z,8.52
2022-08-10T23:31:15.868Z,8.25
2022-08-10T23:33:45.756Z,5.30
2022-08-10T23:36:34.382Z,5.00
2022-08-10T23:39:25.845Z,5.47
2022-08-10T23:42:01.792Z,6.80
2022-08-10T23:44:38.872Z,4.88
2022-08-10T23:47:09.264Z,6.47
2022-08-10T23:49:39.008Z,9.10
2022-08-10T23:52:12.027Z,7.22
2022-08-10T23:54:45.416Z,7.33
2022-08-10T23:57:17.187Z,6.63
2022-08-10T23:59:51.567Z,7.88
